sensor_id;sensor_type;location;lat;lon;timestamp;temperature;humidity
6581;DHT22;3324;50.796;7.228;2024-03-02T00:01:39;8.10;99.90
6581;DHT22;3324;50.796;7.228;2024-03-02T00:04:05;8.20;99.90
6581;DHT22;3324;50.796;7.228;2024-03-02T00:06:34;8.20;99.90
6581;DHT22;3324;50.796;7.228;2024-03-02T00:08:59;8.30;99.90
6581;DHT22;3324;50.796;7.228;2024-03-02T00:11:25;8.30;99.90
6581;DHT22;3324;50.796;7.228;2024-03-02T00:13:52;8.30;99.90
6581;DHT22;3324;50.796;7.228;2024-03-02T00:16:18;8.30;99.90
6581;DHT22;3324;50.796;7.228;2024-03-02T00:18:44;8.40;99.90
6581;DHT22;3324;50.796;7.228;2024-03-02T00:21:09;8.40;99.90
6581;DHT22;3324;50.796;7.228;2024-03-02T00:23:35;8.40;99.90
6581;DHT22;3324;50.796;7.228;2024-03-02T00:26:00;8.40;99.90
6581;DHT22;3324;50.796;7.228;2024-03-02T00:28:27;8.40;99.90
6581;DHT22;3324;50.796;7.228;2024-03-02T00:33:21;8.40;99.90
6581;DHT22;3324;50.796;7.228;2024-03-02T00:35:47;8.40;99.90
6581;DHT22;3324;50.796;7.228;2024-03-02T00:38:13;8.40;99.90
6581;DHT22;3324;50.796;7.228;2024-03-02T00:40:43;8.40;99.90
6581;DHT22;3324;50.796;7.228;2024-03-02T00:45:53;8.50;99.90
6581;DHT22;3324;50.796;7.228;2024-03-02T00:48:18;8.50;99.90
6581;DHT22;3324;50.796;7.228;2024-03-02T00:50:44;8.50;99.90
6581;DHT22;3324;50.796;7.228;2024-03-02T00:53:10;8.50;99.90
6581;DHT22;3324;50.796;7.228;2024-03-02T00:55:36;8.50;99.90
6581;DHT22;3324;50.796;7.228;2024-03-02T00:58:02;8.50;99.90
6581;DHT22;3324;50.796;7.228;2024-03-02T01:00:28;8.50;99.90
6581;DHT22;3324;50.796;7.228;2024-03-02T01:02:53;8.50;99.90
6581;DHT22;3324;50.796;7.228;2024-03-02T01:05:20;8.50;99.90
6581;DHT22;3324;50.796;7.228;2024-03-02T01:07:45;8.50;99.90
6581;DHT22;3324;50.796;7.228;2024-03-02T01:10:11;8.50;99.90
6581;DHT22;3324;50.796;7.228;2024-03-02T01:12:36;8.50;99.90
6581;DHT22;3324;50.796;7.228;2024-03-02T01:15:02;8.50;99.90
6581;DHT22;3324;50.796;7.228;2024-03-02T01:17:31;8.50;99.90
6581;DHT22;3324;50.796;7.228;2024-03-02T01:19:56;8.50;99.90
6581;DHT22;3324;50.796;7.228;2024-03-02T01:22:22;8.50;99.90
6581;DHT22;3324;50.796;7.228;2024-03-02T01:24:50;8.50;99.90
6581;DHT22;3324;50.796;7.228;2024-03-02T01:27:16;8.50;99.90
6581;DHT22;3324;50.796;7.228;2024-03-02T01:29:41;8.60;99.90
6581;DHT22;3324;50.796;7.228;2024-03-02T01:32:07;8.50;99.90
6581;DHT22;3324;50.796;7.228;2024-03-02T01:34:32;8.60;99.90
6581;DHT22;3324;50.796;7.228;2024-03-02T01:36:58;8.60;99.90
6581;DHT22;3324;50.796;7.228;2024-03-02T01:39:23;8.60;99.90
6581;DHT22;3324;50.796;7.228;2024-03-02T01:41:49;8.50;99.90
6581;DHT22;3324;50.796;7.228;2024-03-02T01:44:14;8.50;99.90
6581;DHT22;3324;50.796;7.228;2024-03-02T01:46:40;8.60;99.90
6581;DHT22;3324;50.796;7.228;2024-03-02T01:49:06;8.60;99.90
6581;DHT22;3324;50.796;7.228;2024-03-02T01:51:31;8.60;99.90
6581;DHT22;3324;50.796;7.228;2024-03-02T01:53:57;8.60;99.90
6581;DHT22;3324;50.796;7.228;2024-03-02T01:56:22;8.60;99.90
6581;DHT22;3324;50.796;7.228;2024-03-02T01:58:48;8.60;99.90
6581;DHT22;3324;50.796;7.228;2024-03-02T02:01:13;8.60;99.90
6581;DHT22;3324;50.796;7.228;2024-03-02T02:03:39;8.50;99.90
6581;DHT22;3324;50.796;7.228;2024-03-02T02:06:06;8.50;99.90
6581;DHT22;3324;50.796;7.228;2024-03-02T02:08:32;8.50;99.90
6581;DHT22;3324;50.796;7.228;2024-03-02T02:10:58;8.40;99.90
6581;DHT22;3324;50.796;7.228;2024-03-02T02:13:23;8.50;99.90
6581;DHT22;3324;50.796;7.228;2024-03-02T02:15:49;8.50;99.90
6581;DHT22;3324;50.796;7.228;2024-03-02T02:18:15;8.50;99.90
6581;DHT22;3324;50.796;7.228;2024-03-02T02:20:41;8.50;99.90
6581;DHT22;3324;50.796;7.228;2024-03-02T02:23:06;8.40;99.90
6581;DHT22;3324;50.796;7.228;2024-03-02T02:25:35;8.30;99.90
6581;DHT22;3324;50.796;7.228;2024-03-02T02:28:00;8.30;99.90
6581;DHT22;3324;50.796;7.228;2024-03-02T02:30:28;8.30;99.90
6581;DHT22;3324;50.796;7.228;2024-03-02T02:32:54;8.30;99.90
6581;DHT22;3324;50.796;7.228;2024-03-02T02:35:19;8.30;99.90
6581;DHT22;3324;50.796;7.228;2024-03-02T02:37:45;8.40;99.90
6581;DHT22;3324;50.796;7.228;2024-03-02T02:40:11;8.30;99.90
6581;DHT22;3324;50.796;7.228;2024-03-02T02:42:37;8.30;99.90
6581;DHT22;3324;50.796;7.228;2024-03-02T02:45:04;8.30;99.90
6581;DHT22;3324;50.796;7.228;2024-03-02T02:47:30;8.30;99.90
6581;DHT22;3324;50.796;7.228;2024-03-02T02:49:55;8.30;99.90
6581;DHT22;3324;50.796;7.228;2024-03-02T02:52:21;8.30;99.90
6581;DHT22;3324;50.796;7.228;2024-03-02T02:54:46;8.30;99.90
6581;DHT22;3324;50.796;7.228;2024-03-02T02:57:12;8.40;99.90
6581;DHT22;3324;50.796;7.228;2024-03-02T02:59:37;8.30;99.90
6581;DHT22;3324;50.796;7.228;2024-03-02T03:02:03;8.40;99.90
6581;DHT22;3324;50.796;7.228;2024-03-02T03:04:28;8.40;99.90
6581;DHT22;3324;50.796;7.228;2024-03-02T03:06:53;8.50;99.90
6581;DHT22;3324;50.796;7.228;2024-03-02T03:09:19;8.40;99.90
6581;DHT22;3324;50.796;7.228;2024-03-02T03:11:44;8.30;99.90
6581;DHT22;3324;50.796;7.228;2024-03-02T03:14:10;8.30;99.90
6581;DHT22;3324;50.796;7.228;2024-03-02T03:16:35;8.30;99.90
6581;DHT22;3324;50.796;7.228;2024-03-02T03:19:01;8.30;99.90
6581;DHT22;3324;50.796;7.228;2024-03-02T03:21:26;8.30;99.90
6581;DHT22;3324;50.796;7.228;2024-03-02T03:23:52;8.20;99.90
6581;DHT22;3324;50.796;7.228;2024-03-02T03:26:17;8.30;99.90
6581;DHT22;3324;50.796;7.228;2024-03-02T03:28:43;8.20;99.90
6581;DHT22;3324;50.796;7.228;2024-03-02T03:31:08;8.20;99.90
6581;DHT22;3324;50.796;7.228;2024-03-02T03:33:34;8.20;99.90
6581;DHT22;3324;50.796;7.228;2024-03-02T03:36:00;8.30;99.90
6581;DHT22;3324;50.796;7.228;2024-03-02T03:38:25;8.30;99.90
6581;DHT22;3324;50.796;7.228;2024-03-02T03:40:50;8.30;99.90
6581;DHT22;3324;50.796;7.228;2024-03-02T03:43:16;8.30;99.90
6581;DHT22;3324;50.796;7.228;2024-03-02T03:45:41;8.20;99.90
6581;DHT22;3324;50.796;7.228;2024-03-02T03:48:07;8.20;99.90
6581;DHT22;3324;50.796;7.228;2024-03-02T03:50:32;8.20;99.90
6581;DHT22;3324;50.796;7.228;2024-03-02T03:52:58;8.20;99.90
6581;DHT22;3324;50.796;7.228;2024-03-02T03:55:24;8.10;99.90
6581;DHT22;3324;50.796;7.228;2024-03-02T03:57:49;8.20;99.90
6581;DHT22;3324;50.796;7.228;2024-03-02T04:00:15;8.30;99.90
6581;DHT22;3324;50.796;7.228;2024-03-02T04:02:40;8.20;99.90
6581;DHT22;3324;50.796;7.228;2024-03-02T04:05:06;8.30;99.90
6581;DHT22;3324;50.796;7.228;2024-03-02T04:07:36;8.30;99.90
6581;DHT22;3324;50.796;7.228;2024-03-02T04:10:08;8.40;99.90
6581;DHT22;3324;50.796;7.228;2024-03-02T04:12:34;8.30;99.90
6581;DHT22;3324;50.796;7.228;2024-03-02T04:15:01;8.40;99.90
6581;DHT22;3324;50.796;7.228;2024-03-02T04:17:27;8.30;99.90
6581;DHT22;3324;50.796;7.228;2024-03-02T04:19:52;8.30;99.90
6581;DHT22;3324;50.796;7.228;2024-03-02T04:22:18;8.30;99.90
6581;DHT22;3324;50.796;7.228;2024-03-02T04:24:43;8.20;99.90
6581;DHT22;3324;50.796;7.228;2024-03-02T04:27:09;8.20;99.90
6581;DHT22;3324;50.796;7.228;2024-03-02T04:29:34;8.10;99.90
6581;DHT22;3324;50.796;7.228;2024-03-02T04:31:59;8.10;99.90
6581;DHT22;3324;50.796;7.228;2024-03-02T04:34:25;8.10;99.90
6581;DHT22;3324;50.796;7.228;2024-03-02T04:36:50;8.00;99.90
6581;DHT22;3324;50.796;7.228;2024-03-02T04:39:16;8.00;99.90
6581;DHT22;3324;50.796;7.228;2024-03-02T04:41:42;8.00;99.90
6581;DHT22;3324;50.796;7.228;2024-03-02T04:44:07;8.00;99.90
6581;DHT22;3324;50.796;7.228;2024-03-02T04:46:33;7.90;99.90
6581;DHT22;3324;50.796;7.228;2024-03-02T04:48:58;8.00;99.90
6581;DHT22;3324;50.796;7.228;2024-03-02T04:51:24;7.90;99.90
6581;DHT22;3324;50.796;7.228;2024-03-02T04:53:49;7.90;99.90
6581;DHT22;3324;50.796;7.228;2024-03-02T04:56:15;7.80;99.90
6581;DHT22;3324;50.796;7.228;2024-03-02T04:58:59;7.80;99.90
6581;DHT22;3324;50.796;7.228;2024-03-02T05:01:24;7.90;99.90
6581;DHT22;3324;50.796;7.228;2024-03-02T05:03:50;7.90;99.90
6581;DHT22;3324;50.796;7.228;2024-03-02T05:06:15;8.00;99.90
6581;DHT22;3324;50.796;7.228;2024-03-02T05:08:40;8.00;99.90
6581;DHT22;3324;50.796;7.228;2024-03-02T05:11:06;8.00;99.90
6581;DHT22;3324;50.796;7.228;2024-03-02T05:13:50;8.00;99.90
6581;DHT22;3324;50.796;7.228;2024-03-02T05:16:15;8.20;99.90
6581;DHT22;3324;50.796;7.228;2024-03-02T05:18:41;8.20;99.90
6581;DHT22;3324;50.796;7.228;2024-03-02T05:21:06;8.20;99.90
6581;DHT22;3324;50.796;7.228;2024-03-02T05:23:32;8.20;99.90
6581;DHT22;3324;50.796;7.228;2024-03-02T05:25:57;8.10;99.90
6581;DHT22;3324;50.796;7.228;2024-03-02T05:28:23;8.10;99.90
6581;DHT22;3324;50.796;7.228;2024-03-02T05:30:48;8.20;99.90
6581;DHT22;3324;50.796;7.228;2024-03-02T05:33:14;8.20;99.90
6581;DHT22;3324;50.796;7.228;2024-03-02T05:35:40;8.20;99.90
6581;DHT22;3324;50.796;7.228;2024-03-02T05:38:05;8.20;99.90
6581;DHT22;3324;50.796;7.228;2024-03-02T05:40:31;8.20;99.90
6581;DHT22;3324;50.796;7.228;2024-03-02T05:42:56;8.20;99.90
6581;DHT22;3324;50.796;7.228;2024-03-02T05:45:22;8.20;99.90
6581;DHT22;3324;50.796;7.228;2024-03-02T05:47:47;8.20;99.90
6581;DHT22;3324;50.796;7.228;2024-03-02T05:50:13;8.20;99.90
6581;DHT22;3324;50.796;7.228;2024-03-02T05:52:38;8.20;99.90
6581;DHT22;3324;50.796;7.228;2024-03-02T05:55:04;8.20;99.90
6581;DHT22;3324;50.796;7.228;2024-03-02T05:57:30;8.20;99.90
6581;DHT22;3324;50.796;7.228;2024-03-02T06:00:20;8.20;99.90
6581;DHT22;3324;50.796;7.228;2024-03-02T06:02:46;8.20;99.90
6581;DHT22;3324;50.796;7.228;2024-03-02T06:05:11;8.20;99.90
6581;DHT22;3324;50.796;7.228;2024-03-02T06:07:37;8.20;99.90
6581;DHT22;3324;50.796;7.228;2024-03-02T06:10:03;8.20;99.90
6581;DHT22;3324;50.796;7.228;2024-03-02T06:12:30;8.10;99.90
6581;DHT22;3324;50.796;7.228;2024-03-02T06:14:56;8.20;99.90
6581;DHT22;3324;50.796;7.228;2024-03-02T06:17:21;8.10;99.90
6581;DHT22;3324;50.796;7.228;2024-03-02T06:19:47;8.20;99.90
6581;DHT22;3324;50.796;7.228;2024-03-02T06:22:13;8.20;99.90
6581;DHT22;3324;50.796;7.228;2024-03-02T06:24:38;8.20;99.90
6581;DHT22;3324;50.796;7.228;2024-03-02T06:27:04;8.10;99.90
6581;DHT22;3324;50.796;7.228;2024-03-02T06:29:32;8.10;99.90
6581;DHT22;3324;50.796;7.228;2024-03-02T06:31:57;8.20;99.90
6581;DHT22;3324;50.796;7.228;2024-03-02T06:34:23;8.30;99.90
6581;DHT22;3324;50.796;7.228;2024-03-02T06:36:48;8.30;99.90
6581;DHT22;3324;50.796;7.228;2024-03-02T06:39:14;8.20;99.90
6581;DHT22;3324;50.796;7.228;2024-03-02T06:41:39;8.30;99.90
6581;DHT22;3324;50.796;7.228;2024-03-02T06:44:05;8.20;99.90
6581;DHT22;3324;50.796;7.228;2024-03-02T06:46:31;8.20;99.90
6581;DHT22;3324;50.796;7.228;2024-03-02T06:48:57;8.20;99.90
6581;DHT22;3324;50.796;7.228;2024-03-02T06:51:22;8.30;99.90
6581;DHT22;3324;50.796;7.228;2024-03-02T06:53:48;8.40;99.90
6581;DHT22;3324;50.796;7.228;2024-03-02T06:56:13;8.40;99.90
6581;DHT22;3324;50.796;7.228;2024-03-02T06:58:39;8.40;99.90
6581;DHT22;3324;50.796;7.228;2024-03-02T07:01:04;8.40;99.90
6581;DHT22;3324;50.796;7.228;2024-03-02T07:03:30;8.40;99.90
6581;DHT22;3324;50.796;7.228;2024-03-02T07:05:55;8.40;99.90
6581;DHT22;3324;50.796;7.228;2024-03-02T07:08:21;8.50;99.90
6581;DHT22;3324;50.796;7.228;2024-03-02T07:10:46;8.50;99.90
6581;DHT22;3324;50.796;7.228;2024-03-02T07:13:12;8.50;99.90
6581;DHT22;3324;50.796;7.228;2024-03-02T07:15:38;8.50;99.90
6581;DHT22;3324;50.796;7.228;2024-03-02T07:18:04;8.50;99.90
6581;DHT22;3324;50.796;7.228;2024-03-02T07:20:29;8.50;99.90
6581;DHT22;3324;50.796;7.228;2024-03-02T07:22:55;8.50;99.90
6581;DHT22;3324;50.796;7.228;2024-03-02T07:25:20;8.60;99.90
6581;DHT22;3324;50.796;7.228;2024-03-02T07:27:46;8.70;99.90
6581;DHT22;3324;50.796;7.228;2024-03-02T07:30:13;8.70;99.90
6581;DHT22;3324;50.796;7.228;2024-03-02T07:32:39;8.80;99.90
6581;DHT22;3324;50.796;7.228;2024-03-02T07:35:06;8.80;99.90
6581;DHT22;3324;50.796;7.228;2024-03-02T07:37:32;8.90;99.90
6581;DHT22;3324;50.796;7.228;2024-03-02T07:39:58;8.90;99.90
6581;DHT22;3324;50.796;7.228;2024-03-02T07:42:23;9.00;99.90
6581;DHT22;3324;50.796;7.228;2024-03-02T07:44:49;9.10;99.90
6581;DHT22;3324;50.796;7.228;2024-03-02T07:47:14;9.10;99.90
6581;DHT22;3324;50.796;7.228;2024-03-02T07:49:40;9.20;99.90
6581;DHT22;3324;50.796;7.228;2024-03-02T07:52:05;9.20;99.90
6581;DHT22;3324;50.796;7.228;2024-03-02T07:54:31;9.20;99.90
6581;DHT22;3324;50.796;7.228;2024-03-02T07:56:56;9.30;99.90
6581;DHT22;3324;50.796;7.228;2024-03-02T07:59:23;9.40;99.90
6581;DHT22;3324;50.796;7.228;2024-03-02T08:01:48;9.50;99.90
6581;DHT22;3324;50.796;7.228;2024-03-02T08:04:14;9.50;99.90
6581;DHT22;3324;50.796;7.228;2024-03-02T08:06:39;9.60;99.90
6581;DHT22;3324;50.796;7.228;2024-03-02T08:09:05;9.50;99.90
6581;DHT22;3324;50.796;7.228;2024-03-02T08:11:35;9.60;99.90
6581;DHT22;3324;50.796;7.228;2024-03-02T08:14:01;9.60;99.90
6581;DHT22;3324;50.796;7.228;2024-03-02T08:16:26;9.70;99.90
6581;DHT22;3324;50.796;7.228;2024-03-02T08:18:52;9.80;99.90
6581;DHT22;3324;50.796;7.228;2024-03-02T08:21:18;9.80;99.90
6581;DHT22;3324;50.796;7.228;2024-03-02T08:23:43;10.00;99.90
6581;DHT22;3324;50.796;7.228;2024-03-02T08:26:09;10.10;99.90
6581;DHT22;3324;50.796;7.228;2024-03-02T08:28:35;10.10;99.90
6581;DHT22;3324;50.796;7.228;2024-03-02T08:31:02;10.20;99.90
6581;DHT22;3324;50.796;7.228;2024-03-02T08:33:28;10.30;99.90
6581;DHT22;3324;50.796;7.228;2024-03-02T08:35:53;10.30;99.90
6581;DHT22;3324;50.796;7.228;2024-03-02T08:38:19;10.40;99.90
6581;DHT22;3324;50.796;7.228;2024-03-02T08:40:44;10.40;99.90
6581;DHT22;3324;50.796;7.228;2024-03-02T08:43:10;10.50;99.90
6581;DHT22;3324;50.796;7.228;2024-03-02T08:45:36;10.50;99.90
6581;DHT22;3324;50.796;7.228;2024-03-02T08:48:01;10.60;99.90
6581;DHT22;3324;50.796;7.228;2024-03-02T08:50:27;10.70;99.90
6581;DHT22;3324;50.796;7.228;2024-03-02T08:52:52;10.70;99.90
6581;DHT22;3324;50.796;7.228;2024-03-02T08:55:18;10.70;99.90
6581;DHT22;3324;50.796;7.228;2024-03-02T08:57:43;10.80;99.90
6581;DHT22;3324;50.796;7.228;2024-03-02T09:00:09;10.90;99.90
6581;DHT22;3324;50.796;7.228;2024-03-02T09:02:34;10.90;99.90
6581;DHT22;3324;50.796;7.228;2024-03-02T09:05:01;10.90;99.90
6581;DHT22;3324;50.796;7.228;2024-03-02T09:07:26;10.90;99.90
6581;DHT22;3324;50.796;7.228;2024-03-02T09:09:52;10.90;99.90
6581;DHT22;3324;50.796;7.228;2024-03-02T09:12:17;10.80;99.90
6581;DHT22;3324;50.796;7.228;2024-03-02T09:14:43;10.90;99.90
6581;DHT22;3324;50.796;7.228;2024-03-02T09:17:09;10.90;99.90
6581;DHT22;3324;50.796;7.228;2024-03-02T09:19:36;10.80;99.90
6581;DHT22;3324;50.796;7.228;2024-03-02T09:22:01;10.80;99.90
6581;DHT22;3324;50.796;7.228;2024-03-02T09:24:28;10.80;99.90
6581;DHT22;3324;50.796;7.228;2024-03-02T09:26:54;10.80;99.90
6581;DHT22;3324;50.796;7.228;2024-03-02T09:29:19;10.80;99.90
6581;DHT22;3324;50.796;7.228;2024-03-02T09:31:46;11.00;99.90
6581;DHT22;3324;50.796;7.228;2024-03-02T09:34:12;11.10;99.90
6581;DHT22;3324;50.796;7.228;2024-03-02T09:36:37;11.30;99.90
6581;DHT22;3324;50.796;7.228;2024-03-02T09:39:03;11.50;99.90
6581;DHT22;3324;50.796;7.228;2024-03-02T09:41:29;11.60;99.90
6581;DHT22;3324;50.796;7.228;2024-03-02T09:43:54;11.70;99.90
6581;DHT22;3324;50.796;7.228;2024-03-02T09:46:20;11.80;99.90
6581;DHT22;3324;50.796;7.228;2024-03-02T09:48:46;11.90;99.90
6581;DHT22;3324;50.796;7.228;2024-03-02T09:51:11;12.00;99.90
6581;DHT22;3324;50.796;7.228;2024-03-02T09:53:37;12.00;99.90
6581;DHT22;3324;50.796;7.228;2024-03-02T09:56:03;12.10;99.90
6581;DHT22;3324;50.796;7.228;2024-03-02T09:58:30;12.10;99.90
6581;DHT22;3324;50.796;7.228;2024-03-02T10:00:55;12.20;99.90
6581;DHT22;3324;50.796;7.228;2024-03-02T10:03:22;12.30;99.90
6581;DHT22;3324;50.796;7.228;2024-03-02T10:05:47;12.40;99.90
6581;DHT22;3324;50.796;7.228;2024-03-02T10:08:13;12.50;99.90
6581;DHT22;3324;50.796;7.228;2024-03-02T10:10:39;12.60;99.90
6581;DHT22;3324;50.796;7.228;2024-03-02T10:13:06;12.60;99.90
6581;DHT22;3324;50.796;7.228;2024-03-02T10:15:31;12.60;99.90
6581;DHT22;3324;50.796;7.228;2024-03-02T10:17:57;12.60;99.90
6581;DHT22;3324;50.796;7.228;2024-03-02T10:20:23;12.60;99.90
6581;DHT22;3324;50.796;7.228;2024-03-02T10:22:49;12.60;99.90
6581;DHT22;3324;50.796;7.228;2024-03-02T10:25:30;12.70;99.90
6581;DHT22;3324;50.796;7.228;2024-03-02T10:27:57;12.70;99.90
6581;DHT22;3324;50.796;7.228;2024-03-02T10:30:22;12.70;99.90
6581;DHT22;3324;50.796;7.228;2024-03-02T10:32:49;12.80;99.90
6581;DHT22;3324;50.796;7.228;2024-03-02T10:35:14;12.90;99.90
6581;DHT22;3324;50.796;7.228;2024-03-02T10:37:40;13.00;99.90
6581;DHT22;3324;50.796;7.228;2024-03-02T10:40:06;13.10;99.90
6581;DHT22;3324;50.796;7.228;2024-03-02T10:42:33;13.20;99.90
6581;DHT22;3324;50.796;7.228;2024-03-02T10:44:59;13.30;99.90
6581;DHT22;3324;50.796;7.228;2024-03-02T10:47:25;13.20;99.90
6581;DHT22;3324;50.796;7.228;2024-03-02T10:49:52;13.20;99.90
6581;DHT22;3324;50.796;7.228;2024-03-02T10:52:18;13.20;99.90
6581;DHT22;3324;50.796;7.228;2024-03-02T10:54:43;13.20;99.90
6581;DHT22;3324;50.796;7.228;2024-03-02T10:57:09;13.20;99.90
6581;DHT22;3324;50.796;7.228;2024-03-02T10:59:36;13.40;99.90
6581;DHT22;3324;50.796;7.228;2024-03-02T11:02:04;13.50;99.90
6581;DHT22;3324;50.796;7.228;2024-03-02T11:04:32;13.60;99.90
6581;DHT22;3324;50.796;7.228;2024-03-02T11:09:26;13.70;99.90
6581;DHT22;3324;50.796;7.228;2024-03-02T11:11:54;13.70;99.90
6581;DHT22;3324;50.796;7.228;2024-03-02T11:14:21;13.70;99.90
6581;DHT22;3324;50.796;7.228;2024-03-02T11:16:49;13.70;99.90
6581;DHT22;3324;50.796;7.228;2024-03-02T11:19:15;13.80;99.90
6581;DHT22;3324;50.796;7.228;2024-03-02T11:21:41;13.80;99.90
6581;DHT22;3324;50.796;7.228;2024-03-02T11:26:50;13.70;99.90
6581;DHT22;3324;50.796;7.228;2024-03-02T11:32:00;13.70;99.90
6581;DHT22;3324;50.796;7.228;2024-03-02T11:34:32;13.70;99.90
6581;DHT22;3324;50.796;7.228;2024-03-02T11:36:58;13.70;99.90
6581;DHT22;3324;50.796;7.228;2024-03-02T11:39:25;13.70;99.90
6581;DHT22;3324;50.796;7.228;2024-03-02T11:41:51;13.60;99.90
6581;DHT22;3324;50.796;7.228;2024-03-02T11:44:16;13.60;99.90
6581;DHT22;3324;50.796;7.228;2024-03-02T11:46:44;13.50;99.90
6581;DHT22;3324;50.796;7.228;2024-03-02T11:49:13;13.60;99.90
6581;DHT22;3324;50.796;7.228;2024-03-02T11:51:39;13.60;99.90
6581;DHT22;3324;50.796;7.228;2024-03-02T11:54:15;13.60;99.90
6581;DHT22;3324;50.796;7.228;2024-03-02T11:56:41;13.60;99.90
6581;DHT22;3324;50.796;7.228;2024-03-02T11:59:06;13.70;99.90
6581;DHT22;3324;50.796;7.228;2024-03-02T12:01:34;13.80;99.90
6581;DHT22;3324;50.796;7.228;2024-03-02T12:03:59;13.90;99.90
6581;DHT22;3324;50.796;7.228;2024-03-02T12:06:25;13.90;99.90
6581;DHT22;3324;50.796;7.228;2024-03-02T12:08:52;14.00;99.90
6581;DHT22;3324;50.796;7.228;2024-03-02T12:11:17;14.00;99.90
6581;DHT22;3324;50.796;7.228;2024-03-02T12:13:51;13.90;99.90
6581;DHT22;3324;50.796;7.228;2024-03-02T12:16:24;13.90;99.90
6581;DHT22;3324;50.796;7.228;2024-03-02T12:18:49;13.80;99.90
6581;DHT22;3324;50.796;7.228;2024-03-02T12:21:15;13.70;99.90
6581;DHT22;3324;50.796;7.228;2024-03-02T12:23:40;13.80;99.90
6581;DHT22;3324;50.796;7.228;2024-03-02T12:26:06;13.90;99.90
6581;DHT22;3324;50.796;7.228;2024-03-02T12:28:32;13.90;99.90
6581;DHT22;3324;50.796;7.228;2024-03-02T12:30:57;14.00;99.90
6581;DHT22;3324;50.796;7.228;2024-03-02T12:33:23;14.10;99.90
6581;DHT22;3324;50.796;7.228;2024-03-02T12:35:49;14.20;99.90
6581;DHT22;3324;50.796;7.228;2024-03-02T12:38:14;14.20;99.90
6581;DHT22;3324;50.796;7.228;2024-03-02T12:40:40;14.40;99.90
6581;DHT22;3324;50.796;7.228;2024-03-02T12:43:05;14.40;99.90
6581;DHT22;3324;50.796;7.228;2024-03-02T12:45:31;14.40;99.90
6581;DHT22;3324;50.796;7.228;2024-03-02T12:47:56;14.40;99.90
6581;DHT22;3324;50.796;7.228;2024-03-02T12:50:22;14.50;99.90
6581;DHT22;3324;50.796;7.228;2024-03-02T12:52:51;14.50;99.90
6581;DHT22;3324;50.796;7.228;2024-03-02T12:55:17;14.60;99.90
6581;DHT22;3324;50.796;7.228;2024-03-02T12:57:42;14.60;99.90
6581;DHT22;3324;50.796;7.228;2024-03-02T13:00:09;14.70;99.90
6581;DHT22;3324;50.796;7.228;2024-03-02T13:02:41;14.70;99.90
6581;DHT22;3324;50.796;7.228;2024-03-02T13:05:07;14.70;99.90
6581;DHT22;3324;50.796;7.228;2024-03-02T13:07:36;14.80;99.90
6581;DHT22;3324;50.796;7.228;2024-03-02T13:10:02;14.80;99.90
6581;DHT22;3324;50.796;7.228;2024-03-02T13:12:28;14.80;99.90
6581;DHT22;3324;50.796;7.228;2024-03-02T13:14:55;14.90;99.90
6581;DHT22;3324;50.796;7.228;2024-03-02T13:17:20;14.90;99.90
6581;DHT22;3324;50.796;7.228;2024-03-02T13:22:18;14.90;99.90
6581;DHT22;3324;50.796;7.228;2024-03-02T13:24:44;14.90;99.90
6581;DHT22;3324;50.796;7.228;2024-03-02T13:27:09;14.80;99.90
6581;DHT22;3324;50.796;7.228;2024-03-02T13:29:34;14.70;99.90
6581;DHT22;3324;50.796;7.228;2024-03-02T13:32:00;14.60;99.90
6581;DHT22;3324;50.796;7.228;2024-03-02T13:34:26;14.60;99.90
6581;DHT22;3324;50.796;7.228;2024-03-02T13:36:51;14.60;99.90
6581;DHT22;3324;50.796;7.228;2024-03-02T13:39:16;14.50;99.90
6581;DHT22;3324;50.796;7.228;2024-03-02T13:41:43;14.50;99.90
6581;DHT22;3324;50.796;7.228;2024-03-02T13:44:17;14.50;99.90
6581;DHT22;3324;50.796;7.228;2024-03-02T13:46:42;14.50;99.90
6581;DHT22;3324;50.796;7.228;2024-03-02T13:49:11;14.50;99.90
6581;DHT22;3324;50.796;7.228;2024-03-02T13:51:37;14.50;99.90
6581;DHT22;3324;50.796;7.228;2024-03-02T13:54:02;14.50;99.90
6581;DHT22;3324;50.796;7.228;2024-03-02T13:56:28;14.60;99.90
6581;DHT22;3324;50.796;7.228;2024-03-02T13:58:57;14.60;99.90
6581;DHT22;3324;50.796;7.228;2024-03-02T14:01:22;14.60;99.90
6581;DHT22;3324;50.796;7.228;2024-03-02T14:03:48;14.60;99.90
6581;DHT22;3324;50.796;7.228;2024-03-02T14:06:13;14.50;99.90
6581;DHT22;3324;50.796;7.228;2024-03-02T14:08:39;14.60;99.90
6581;DHT22;3324;50.796;7.228;2024-03-02T14:11:04;14.70;99.90
6581;DHT22;3324;50.796;7.228;2024-03-02T14:13:30;14.80;99.90
6581;DHT22;3324;50.796;7.228;2024-03-02T14:15:56;14.80;99.90
6581;DHT22;3324;50.796;7.228;2024-03-02T14:18:21;14.80;99.90
6581;DHT22;3324;50.796;7.228;2024-03-02T14:20:46;14.80;99.90
6581;DHT22;3324;50.796;7.228;2024-03-02T14:23:18;14.80;99.90
6581;DHT22;3324;50.796;7.228;2024-03-02T14:25:43;14.70;99.90
6581;DHT22;3324;50.796;7.228;2024-03-02T14:28:09;14.70;99.90
6581;DHT22;3324;50.796;7.228;2024-03-02T14:30:34;14.70;99.90
6581;DHT22;3324;50.796;7.228;2024-03-02T14:33:00;14.70;99.90
6581;DHT22;3324;50.796;7.228;2024-03-02T14:35:25;14.60;99.90
6581;DHT22;3324;50.796;7.228;2024-03-02T14:37:51;14.70;99.90
6581;DHT22;3324;50.796;7.228;2024-03-02T14:40:17;14.60;99.90
6581;DHT22;3324;50.796;7.228;2024-03-02T14:42:42;14.60;99.90
6581;DHT22;3324;50.796;7.228;2024-03-02T14:45:12;14.60;99.90
6581;DHT22;3324;50.796;7.228;2024-03-02T14:47:38;14.50;99.90
6581;DHT22;3324;50.796;7.228;2024-03-02T14:50:03;14.50;99.90
6581;DHT22;3324;50.796;7.228;2024-03-02T14:52:32;14.50;99.90
6581;DHT22;3324;50.796;7.228;2024-03-02T14:54:57;14.50;99.90
6581;DHT22;3324;50.796;7.228;2024-03-02T14:57:23;14.50;99.90
6581;DHT22;3324;50.796;7.228;2024-03-02T14:59:48;14.50;99.90
6581;DHT22;3324;50.796;7.228;2024-03-02T15:02:14;14.50;99.90
6581;DHT22;3324;50.796;7.228;2024-03-02T15:04:39;14.50;99.90
6581;DHT22;3324;50.796;7.228;2024-03-02T15:07:05;14.40;99.90
6581;DHT22;3324;50.796;7.228;2024-03-02T15:09:30;14.40;99.90
6581;DHT22;3324;50.796;7.228;2024-03-02T15:11:56;14.40;99.90
6581;DHT22;3324;50.796;7.228;2024-03-02T15:14:21;14.50;99.90
6581;DHT22;3324;50.796;7.228;2024-03-02T15:16:47;14.40;99.90
6581;DHT22;3324;50.796;7.228;2024-03-02T15:19:13;14.50;99.90
6581;DHT22;3324;50.796;7.228;2024-03-02T15:21:39;14.50;99.90
6581;DHT22;3324;50.796;7.228;2024-03-02T15:24:05;14.50;99.90
6581;DHT22;3324;50.796;7.228;2024-03-02T15:26:30;14.50;99.90
6581;DHT22;3324;50.796;7.228;2024-03-02T15:28:56;14.50;99.90
6581;DHT22;3324;50.796;7.228;2024-03-02T15:31:24;14.50;99.90
6581;DHT22;3324;50.796;7.228;2024-03-02T15:33:49;14.50;99.90
6581;DHT22;3324;50.796;7.228;2024-03-02T15:36:16;14.50;99.90
6581;DHT22;3324;50.796;7.228;2024-03-02T15:38:41;14.50;99.90
6581;DHT22;3324;50.796;7.228;2024-03-02T15:41:07;14.50;99.90
6581;DHT22;3324;50.796;7.228;2024-03-02T15:43:33;14.50;99.90
6581;DHT22;3324;50.796;7.228;2024-03-02T15:46:01;14.50;99.90
6581;DHT22;3324;50.796;7.228;2024-03-02T15:48:27;14.50;99.90
6581;DHT22;3324;50.796;7.228;2024-03-02T15:50:53;14.50;99.90
6581;DHT22;3324;50.796;7.228;2024-03-02T15:53:19;14.40;99.90
6581;DHT22;3324;50.796;7.228;2024-03-02T15:55:44;14.40;99.90
6581;DHT22;3324;50.796;7.228;2024-03-02T15:58:10;14.40;99.90
6581;DHT22;3324;50.796;7.228;2024-03-02T16:00:36;14.50;99.90
6581;DHT22;3324;50.796;7.228;2024-03-02T16:03:01;14.40;99.90
6581;DHT22;3324;50.796;7.228;2024-03-02T16:05:27;14.40;99.90
6581;DHT22;3324;50.796;7.228;2024-03-02T16:07:52;14.30;99.90
6581;DHT22;3324;50.796;7.228;2024-03-02T16:10:18;14.30;99.90
6581;DHT22;3324;50.796;7.228;2024-03-02T16:12:43;14.30;99.90
6581;DHT22;3324;50.796;7.228;2024-03-02T16:15:09;14.30;99.90
6581;DHT22;3324;50.796;7.228;2024-03-02T16:17:34;14.20;99.90